sensor_id;sensor_type;location;lat;lon;timestamp;temperature;humidity
70079;DHT22;57451;52.496;13.456;2023-06-24T00:00:44;18.60;74.90
70079;DHT22;57451;52.496;13.456;2023-06-24T00:03:11;18.50;74.70
70079;DHT22;57451;52.496;13.456;2023-06-24T00:05:44;18.50;75.00
70079;DHT22;57451;52.496;13.456;2023-06-24T00:08:17;18.50;75.30
70079;DHT22;57451;52.496;13.456;2023-06-24T00:10:46;18.50;75.50
70079;DHT22;57451;52.496;13.456;2023-06-24T00:13:14;18.50;74.90
70079;DHT22;57451;52.496;13.456;2023-06-24T00:15:41;18.50;74.80
70079;DHT22;57451;52.496;13.456;2023-06-24T00:18:11;18.50;74.70
70079;DHT22;57451;52.496;13.456;2023-06-24T00:20:39;18.50;74.90
70079;DHT22;57451;52.496;13.456;2023-06-24T00:23:09;18.40;75.00
70079;DHT22;57451;52.496;13.456;2023-06-24T00:25:36;18.40;74.50
70079;DHT22;57451;52.496;13.456;2023-06-24T00:28:03;18.40;75.00
70079;DHT22;57451;52.496;13.456;2023-06-24T00:30:31;18.40;75.90
70079;DHT22;57451;52.496;13.456;2023-06-24T00:32:58;18.40;75.80
70079;DHT22;57451;52.496;13.456;2023-06-24T00:35:27;18.40;75.40
70079;DHT22;57451;52.496;13.456;2023-06-24T00:37:55;18.40;75.70
70079;DHT22;57451;52.496;13.456;2023-06-24T00:40:26;18.40;75.80
70079;DHT22;57451;52.496;13.456;2023-06-24T00:42:54;18.30;75.70
70079;DHT22;57451;52.496;13.456;2023-06-24T00:45:22;18.30;76.00
70079;DHT22;57451;52.496;13.456;2023-06-24T00:47:49;18.30;75.90
70079;DHT22;57451;52.496;13.456;2023-06-24T00:50:17;18.30;76.10
70079;DHT22;57451;52.496;13.456;2023-06-24T00:52:46;18.30;75.50
70079;DHT22;57451;52.496;13.456;2023-06-24T00:55:15;18.20;75.70
70079;DHT22;57451;52.496;13.456;2023-06-24T00:57:44;18.20;75.50
70079;DHT22;57451;52.496;13.456;2023-06-24T01:00:14;18.20;75.90
70079;DHT22;57451;52.496;13.456;2023-06-24T01:02:44;18.20;76.00
70079;DHT22;57451;52.496;13.456;2023-06-24T01:05:15;18.10;76.60
70079;DHT22;57451;52.496;13.456;2023-06-24T01:07:43;18.10;76.70
70079;DHT22;57451;52.496;13.456;2023-06-24T01:10:14;18.10;77.20
70079;DHT22;57451;52.496;13.456;2023-06-24T01:12:41;18.10;77.30
70079;DHT22;57451;52.496;13.456;2023-06-24T01:15:11;18.00;77.20
70079;DHT22;57451;52.496;13.456;2023-06-24T01:17:44;18.00;76.80
70079;DHT22;57451;52.496;13.456;2023-06-24T01:20:19;18.00;77.20
70079;DHT22;57451;52.496;13.456;2023-06-24T01:23:06;18.00;77.30
70079;DHT22;57451;52.496;13.456;2023-06-24T01:25:49;17.90;77.20
70079;DHT22;57451;52.496;13.456;2023-06-24T01:28:33;17.90;77.40
70079;DHT22;57451;52.496;13.456;2023-06-24T01:31:29;17.90;77.30
70079;DHT22;57451;52.496;13.456;2023-06-24T01:34:04;17.90;77.50
70079;DHT22;57451;52.496;13.456;2023-06-24T01:36:35;17.90;77.50
70079;DHT22;57451;52.496;13.456;2023-06-24T01:39:08;17.80;77.10
70079;DHT22;57451;52.496;13.456;2023-06-24T01:41:39;17.80;77.00
70079;DHT22;57451;52.496;13.456;2023-06-24T01:44:09;17.80;77.30
70079;DHT22;57451;52.496;13.456;2023-06-24T01:46:45;17.80;77.10
70079;DHT22;57451;52.496;13.456;2023-06-24T01:49:14;17.70;77.10
70079;DHT22;57451;52.496;13.456;2023-06-24T01:51:45;17.70;77.10
70079;DHT22;57451;52.496;13.456;2023-06-24T01:54:17;17.70;76.70
70079;DHT22;57451;52.496;13.456;2023-06-24T01:56:50;17.70;77.00
70079;DHT22;57451;52.496;13.456;2023-06-24T01:59:20;17.70;76.80
70079;DHT22;57451;52.496;13.456;2023-06-24T02:01:50;17.60;76.30
70079;DHT22;57451;52.496;13.456;2023-06-24T02:04:19;17.60;76.60
70079;DHT22;57451;52.496;13.456;2023-06-24T02:06:49;17.60;76.30
70079;DHT22;57451;52.496;13.456;2023-06-24T02:09:18;17.60;76.60
70079;DHT22;57451;52.496;13.456;2023-06-24T02:11:47;17.60;76.40
70079;DHT22;57451;52.496;13.456;2023-06-24T02:14:16;17.50;76.60
70079;DHT22;57451;52.496;13.456;2023-06-24T02:16:45;17.50;76.70
70079;DHT22;57451;52.496;13.456;2023-06-24T02:19:15;17.50;76.70
70079;DHT22;57451;52.496;13.456;2023-06-24T02:21:45;17.50;77.00
70079;DHT22;57451;52.496;13.456;2023-06-24T02:24:13;17.40;77.00
70079;DHT22;57451;52.496;13.456;2023-06-24T02:26:41;17.40;77.20
70079;DHT22;57451;52.496;13.456;2023-06-24T02:29:09;17.40;76.90
70079;DHT22;57451;52.496;13.456;2023-06-24T02:31:38;17.40;76.60
70079;DHT22;57451;52.496;13.456;2023-06-24T02:34:05;17.40;76.90
70079;DHT22;57451;52.496;13.456;2023-06-24T02:36:34;17.40;77.00
70079;DHT22;57451;52.496;13.456;2023-06-24T02:39:02;17.30;77.00
70079;DHT22;57451;52.496;13.456;2023-06-24T02:41:29;17.30;76.90
70079;DHT22;57451;52.496;13.456;2023-06-24T02:43:57;17.30;76.90
70079;DHT22;57451;52.496;13.456;2023-06-24T02:46:25;17.30;76.50
70079;DHT22;57451;52.496;13.456;2023-06-24T02:48:57;17.30;76.60
70079;DHT22;57451;52.496;13.456;2023-06-24T02:51:25;17.20;76.90
70079;DHT22;57451;52.496;13.456;2023-06-24T02:53:55;17.20;77.00
70079;DHT22;57451;52.496;13.456;2023-06-24T02:56:43;17.10;77.00
70079;DHT22;57451;52.496;13.456;2023-06-24T02:59:18;17.10;76.80
70079;DHT22;57451;52.496;13.456;2023-06-24T03:01:50;17.20;76.50
70079;DHT22;57451;52.496;13.456;2023-06-24T03:04:18;17.20;76.50
70079;DHT22;57451;52.496;13.456;2023-06-24T03:06:47;17.10;76.60
70079;DHT22;57451;52.496;13.456;2023-06-24T03:09:18;17.10;76.60
70079;DHT22;57451;52.496;13.456;2023-06-24T03:11:47;17.10;76.50
70079;DHT22;57451;52.496;13.456;2023-06-24T03:14:22;17.10;76.30
70079;DHT22;57451;52.496;13.456;2023-06-24T03:16:49;17.00;76.60
70079;DHT22;57451;52.496;13.456;2023-06-24T03:19:19;17.00;76.80
70079;DHT22;57451;52.496;13.456;2023-06-24T03:21:52;17.00;76.60
70079;DHT22;57451;52.496;13.456;2023-06-24T03:24:21;17.10;76.60
70079;DHT22;57451;52.496;13.456;2023-06-24T03:26:49;17.10;76.40
70079;DHT22;57451;52.496;13.456;2023-06-24T03:29:27;17.10;76.40
70079;DHT22;57451;52.496;13.456;2023-06-24T03:32:03;17.00;76.40
70079;DHT22;57451;52.496;13.456;2023-06-24T03:34:31;17.00;76.40
70079;DHT22;57451;52.496;13.456;2023-06-24T03:36:58;17.00;76.40
70079;DHT22;57451;52.496;13.456;2023-06-24T03:39:27;17.00;76.10
70079;DHT22;57451;52.496;13.456;2023-06-24T03:41:56;17.00;76.40
70079;DHT22;57451;52.496;13.456;2023-06-24T03:44:23;17.00;76.40
70079;DHT22;57451;52.496;13.456;2023-06-24T03:46:51;17.00;76.40
70079;DHT22;57451;52.496;13.456;2023-06-24T03:49:18;17.00;76.40
70079;DHT22;57451;52.496;13.456;2023-06-24T03:51:46;16.90;76.40
70079;DHT22;57451;52.496;13.456;2023-06-24T03:54:14;16.90;76.40
70079;DHT22;57451;52.496;13.456;2023-06-24T03:56:42;17.00;76.20
70079;DHT22;57451;52.496;13.456;2023-06-24T03:59:10;17.00;76.20
70079;DHT22;57451;52.496;13.456;2023-06-24T04:01:37;16.90;76.10
70079;DHT22;57451;52.496;13.456;2023-06-24T04:04:05;16.90;76.10
70079;DHT22;57451;52.496;13.456;2023-06-24T04:06:33;16.90;76.20
70079;DHT22;57451;52.496;13.456;2023-06-24T04:09:00;16.90;76.40
70079;DHT22;57451;52.496;13.456;2023-06-24T04:11:29;16.90;76.40
70079;DHT22;57451;52.496;13.456;2023-06-24T04:14:00;16.90;76.30
70079;DHT22;57451;52.496;13.456;2023-06-24T04:16:27;16.90;76.20
70079;DHT22;57451;52.496;13.456;2023-06-24T04:18:55;16.90;75.90
70079;DHT22;57451;52.496;13.456;2023-06-24T04:21:22;16.90;75.90
70079;DHT22;57451;52.496;13.456;2023-06-24T04:23:51;16.90;76.00
70079;DHT22;57451;52.496;13.456;2023-06-24T04:26:18;16.90;76.10
70079;DHT22;57451;52.496;13.456;2023-06-24T04:28:46;16.90;76.10
70079;DHT22;57451;52.496;13.456;2023-06-24T04:31:15;16.90;75.90
70079;DHT22;57451;52.496;13.456;2023-06-24T04:33:43;16.90;75.90
70079;DHT22;57451;52.496;13.456;2023-06-24T04:36:10;16.90;75.70
70079;DHT22;57451;52.496;13.456;2023-06-24T04:38:38;16.90;75.60
70079;DHT22;57451;52.496;13.456;2023-06-24T04:41:05;16.90;75.90
70079;DHT22;57451;52.496;13.456;2023-06-24T04:43:33;16.90;76.00
70079;DHT22;57451;52.496;13.456;2023-06-24T04:46:02;16.80;76.10
70079;DHT22;57451;52.496;13.456;2023-06-24T04:48:31;16.80;76.00
70079;DHT22;57451;52.496;13.456;2023-06-24T04:50:59;16.90;75.90
70079;DHT22;57451;52.496;13.456;2023-06-24T04:53:26;16.90;75.80
70079;DHT22;57451;52.496;13.456;2023-06-24T04:55:54;16.90;75.70
70079;DHT22;57451;52.496;13.456;2023-06-24T04:58:21;16.90;76.00
70079;DHT22;57451;52.496;13.456;2023-06-24T05:00:48;17.00;75.70
70079;DHT22;57451;52.496;13.456;2023-06-24T05:03:16;17.00;75.40
70079;DHT22;57451;52.496;13.456;2023-06-24T05:05:45;17.00;75.60
70079;DHT22;57451;52.496;13.456;2023-06-24T05:08:12;17.00;75.50
70079;DHT22;57451;52.496;13.456;2023-06-24T05:10:40;17.10;75.30
70079;DHT22;57451;52.496;13.456;2023-06-24T05:13:07;17.10;75.30
70079;DHT22;57451;52.496;13.456;2023-06-24T05:15:35;17.10;75.60
70079;DHT22;57451;52.496;13.456;2023-06-24T05:18:02;17.20;75.70
70079;DHT22;57451;52.496;13.456;2023-06-24T05:20:30;17.10;75.30
70079;DHT22;57451;52.496;13.456;2023-06-24T05:22:59;17.10;75.50
70079;DHT22;57451;52.496;13.456;2023-06-24T05:25:26;17.10;75.40
70079;DHT22;57451;52.496;13.456;2023-06-24T05:27:54;17.10;75.50
70079;DHT22;57451;52.496;13.456;2023-06-24T05:30:22;17.20;75.50
70079;DHT22;57451;52.496;13.456;2023-06-24T05:32:49;17.20;75.50
70079;DHT22;57451;52.496;13.456;2023-06-24T05:35:17;17.20;75.30
70079;DHT22;57451;52.496;13.456;2023-06-24T05:37:44;17.30;75.20
70079;DHT22;57451;52.496;13.456;2023-06-24T05:40:13;17.40;75.20
70079;DHT22;57451;52.496;13.456;2023-06-24T05:42:41;17.40;74.80
70079;DHT22;57451;52.496;13.456;2023-06-24T05:45:09;17.50;75.20
70079;DHT22;57451;52.496;13.456;2023-06-24T05:47:37;17.50;74.90
70079;DHT22;57451;52.496;13.456;2023-06-24T05:50:05;17.60;74.80
70079;DHT22;57451;52.496;13.456;2023-06-24T05:52:33;17.60;74.90
70079;DHT22;57451;52.496;13.456;2023-06-24T05:55:00;17.70;74.60
70079;DHT22;57451;52.496;13.456;2023-06-24T05:57:29;17.80;74.30
70079;DHT22;57451;52.496;13.456;2023-06-24T05:59:57;17.80;74.50
70079;DHT22;57451;52.496;13.456;2023-06-24T06:02:24;17.80;74.30
70079;DHT22;57451;52.496;13.456;2023-06-24T06:04:52;17.90;74.10
70079;DHT22;57451;52.496;13.456;2023-06-24T06:07:19;17.90;73.70
70079;DHT22;57451;52.496;13.456;2023-06-24T06:09:47;17.90;73.40
70079;DHT22;57451;52.496;13.456;2023-06-24T06:12:14;18.00;73.50
70079;DHT22;57451;52.496;13.456;2023-06-24T06:14:43;18.00;73.10
70079;DHT22;57451;52.496;13.456;2023-06-24T06:17:13;18.10;73.20
70079;DHT22;57451;52.496;13.456;2023-06-24T06:19:41;18.20;73.10
70079;DHT22;57451;52.496;13.456;2023-06-24T06:22:08;18.20;72.50
70079;DHT22;57451;52.496;13.456;2023-06-24T06:24:36;18.30;72.60
70079;DHT22;57451;52.496;13.456;2023-06-24T06:27:04;18.30;72.50
70079;DHT22;57451;52.496;13.456;2023-06-24T06:29:31;18.40;73.00
70079;DHT22;57451;52.496;13.456;2023-06-24T06:32:00;18.40;72.80
70079;DHT22;57451;52.496;13.456;2023-06-24T06:34:28;18.50;72.40
70079;DHT22;57451;52.496;13.456;2023-06-24T06:36:57;18.60;72.40
70079;DHT22;57451;52.496;13.456;2023-06-24T06:39:25;18.70;72.40
70079;DHT22;57451;52.496;13.456;2023-06-24T06:41:53;18.80;72.00
70079;DHT22;57451;52.496;13.456;2023-06-24T06:44:24;18.90;72.00
70079;DHT22;57451;52.496;13.456;2023-06-24T06:46:51;18.90;70.80
70079;DHT22;57451;52.496;13.456;2023-06-24T06:49:20;18.90;70.90
70079;DHT22;57451;52.496;13.456;2023-06-24T06:51:47;19.00;71.20
70079;DHT22;57451;52.496;13.456;2023-06-24T06:54:15;19.10;71.80
70079;DHT22;57451;52.496;13.456;2023-06-24T06:56:42;19.20;71.10
70079;DHT22;57451;52.496;13.456;2023-06-24T06:59:10;19.10;69.90
70079;DHT22;57451;52.496;13.456;2023-06-24T07:01:37;19.20;70.20
70079;DHT22;57451;52.496;13.456;2023-06-24T07:04:05;19.30;70.40
70079;DHT22;57451;52.496;13.456;2023-06-24T07:06:34;19.30;70.10
70079;DHT22;57451;52.496;13.456;2023-06-24T07:09:01;19.40;69.40
70079;DHT22;57451;52.496;13.456;2023-06-24T07:11:29;19.40;70.00
70079;DHT22;57451;52.496;13.456;2023-06-24T07:13:56;19.60;70.20
70079;DHT22;57451;52.496;13.456;2023-06-24T07:16:24;19.60;69.80
70079;DHT22;57451;52.496;13.456;2023-06-24T07:18:51;19.70;69.90
70079;DHT22;57451;52.496;13.456;2023-06-24T07:21:18;19.80;69.60
70079;DHT22;57451;52.496;13.456;2023-06-24T07:23:47;19.90;69.00
70079;DHT22;57451;52.496;13.456;2023-06-24T07:26:14;19.90;68.30
70079;DHT22;57451;52.496;13.456;2023-06-24T07:28:42;19.90;67.50
70079;DHT22;57451;52.496;13.456;2023-06-24T07:31:14;20.00;68.10
70079;DHT22;57451;52.496;13.456;2023-06-24T07:33:42;20.00;68.30
70079;DHT22;57451;52.496;13.456;2023-06-24T07:36:09;20.00;66.30
70079;DHT22;57451;52.496;13.456;2023-06-24T07:38:38;20.00;64.90
70079;DHT22;57451;52.496;13.456;2023-06-24T07:41:07;20.10;65.90
70079;DHT22;57451;52.496;13.456;2023-06-24T07:43:34;20.10;66.30
70079;DHT22;57451;52.496;13.456;2023-06-24T07:46:02;20.10;64.70
70079;DHT22;57451;52.496;13.456;2023-06-24T07:48:29;20.20;64.10
70079;DHT22;57451;52.496;13.456;2023-06-24T07:50:57;20.10;63.50
70079;DHT22;57451;52.496;13.456;2023-06-24T07:53:25;20.10;64.20
70079;DHT22;57451;52.496;13.456;2023-06-24T07:55:52;20.20;65.20
70079;DHT22;57451;52.496;13.456;2023-06-24T07:58:21;20.30;65.40
70079;DHT22;57451;52.496;13.456;2023-06-24T08:00:48;20.40;64.80
70079;DHT22;57451;52.496;13.456;2023-06-24T08:03:16;20.50;64.40
70079;DHT22;57451;52.496;13.456;2023-06-24T08:05:44;20.50;64.30
70079;DHT22;57451;52.496;13.456;2023-06-24T08:08:11;20.60;62.70
70079;DHT22;57451;52.496;13.456;2023-06-24T08:10:38;20.50;63.40
70079;DHT22;57451;52.496;13.456;2023-06-24T08:13:06;20.60;63.80
70079;DHT22;57451;52.496;13.456;2023-06-24T08:15:34;20.70;63.90
70079;DHT22;57451;52.496;13.456;2023-06-24T08:18:04;20.80;63.80
70079;DHT22;57451;52.496;13.456;2023-06-24T08:20:32;20.80;62.20
70079;DHT22;57451;52.496;13.456;2023-06-24T08:22:59;20.80;61.60
70079;DHT22;57451;52.496;13.456;2023-06-24T08:25:27;20.80;62.70
70079;DHT22;57451;52.496;13.456;2023-06-24T08:27:54;20.90;63.40
70079;DHT22;57451;52.496;13.456;2023-06-24T08:30:21;21.00;63.20
70079;DHT22;57451;52.496;13.456;2023-06-24T08:32:50;21.10;62.40
70079;DHT22;57451;52.496;13.456;2023-06-24T08:35:18;21.20;60.90
70079;DHT22;57451;52.496;13.456;2023-06-24T08:37:45;21.00;60.10
70079;DHT22;57451;52.496;13.456;2023-06-24T08:40:12;21.00;59.50
70079;DHT22;57451;52.496;13.456;2023-06-24T08:42:40;21.10;59.50
70079;DHT22;57451;52.496;13.456;2023-06-24T08:45:07;21.20;60.80
70079;DHT22;57451;52.496;13.456;2023-06-24T08:47:35;21.30;61.30
70079;DHT22;57451;52.496;13.456;2023-06-24T08:50:11;21.30;60.40
70079;DHT22;57451;52.496;13.456;2023-06-24T08:52:42;21.30;60.50
70079;DHT22;57451;52.496;13.456;2023-06-24T08:55:13;21.40;61.00
70079;DHT22;57451;52.496;13.456;2023-06-24T08:57:43;21.50;60.50
70079;DHT22;57451;52.496;13.456;2023-06-24T09:00:11;21.50;60.30
70079;DHT22;57451;52.496;13.456;2023-06-24T09:02:38;21.50;59.70
70079;DHT22;57451;52.496;13.456;2023-06-24T09:05:08;21.50;58.60
70079;DHT22;57451;52.496;13.456;2023-06-24T09:07:36;21.50;60.10
70079;DHT22;57451;52.496;13.456;2023-06-24T09:10:04;21.60;58.90
70079;DHT22;57451;52.496;13.456;2023-06-24T09:12:32;21.60;58.10
70079;DHT22;57451;52.496;13.456;2023-06-24T09:15:00;21.60;57.10
70079;DHT22;57451;52.496;13.456;2023-06-24T09:17:27;21.60;58.20
70079;DHT22;57451;52.496;13.456;2023-06-24T09:20:03;21.70;59.10
70079;DHT22;57451;52.496;13.456;2023-06-24T09:22:33;21.70;59.20
70079;DHT22;57451;52.496;13.456;2023-06-24T09:25:01;21.70;56.30
70079;DHT22;57451;52.496;13.456;2023-06-24T09:27:32;21.70;56.30
70079;DHT22;57451;52.496;13.456;2023-06-24T09:30:00;21.80;57.50
70079;DHT22;57451;52.496;13.456;2023-06-24T09:32:29;21.80;56.00
70079;DHT22;57451;52.496;13.456;2023-06-24T09:34:59;21.80;56.40
70079;DHT22;57451;52.496;13.456;2023-06-24T09:37:34;21.70;55.40
70079;DHT22;57451;52.496;13.456;2023-06-24T09:40:02;21.70;56.00
70079;DHT22;57451;52.496;13.456;2023-06-24T09:42:32;21.70;56.80
70079;DHT22;57451;52.496;13.456;2023-06-24T09:45:04;21.80;56.70
70079;DHT22;57451;52.496;13.456;2023-06-24T09:47:32;21.90;56.40
70079;DHT22;57451;52.496;13.456;2023-06-24T09:49:59;21.90;53.90
70079;DHT22;57451;52.496;13.456;2023-06-24T09:52:31;21.90;54.80
70079;DHT22;57451;52.496;13.456;2023-06-24T09:55:03;22.00;55.40
70079;DHT22;57451;52.496;13.456;2023-06-24T09:57:32;22.10;55.10
70079;DHT22;57451;52.496;13.456;2023-06-24T10:00:00;22.20;54.10
70079;DHT22;57451;52.496;13.456;2023-06-24T10:02:32;22.20;55.20
70079;DHT22;57451;52.496;13.456;2023-06-24T10:05:00;22.20;55.70
70079;DHT22;57451;52.496;13.456;2023-06-24T10:07:29;22.20;54.90
70079;DHT22;57451;52.496;13.456;2023-06-24T10:09:56;22.30;54.90
70079;DHT22;57451;52.496;13.456;2023-06-24T10:12:26;22.40;55.30
70079;DHT22;57451;52.496;13.456;2023-06-24T10:14:55;22.50;54.80
70079;DHT22;57451;52.496;13.456;2023-06-24T10:17:23;22.50;53.30
70079;DHT22;57451;52.496;13.456;2023-06-24T10:19:52;22.60;54.20
70079;DHT22;57451;52.496;13.456;2023-06-24T10:22:22;22.60;52.40
70079;DHT22;57451;52.496;13.456;2023-06-24T10:24:51;22.70;53.70
70079;DHT22;57451;52.496;13.456;2023-06-24T10:27:21;22.70;52.40
70079;DHT22;57451;52.496;13.456;2023-06-24T10:29:51;22.70;53.60
70079;DHT22;57451;52.496;13.456;2023-06-24T10:32:22;22.80;54.20
70079;DHT22;57451;52.496;13.456;2023-06-24T10:34:55;22.90;54.40
70079;DHT22;57451;52.496;13.456;2023-06-24T10:37:24;23.00;53.30
70079;DHT22;57451;52.496;13.456;2023-06-24T10:39:53;23.10;52.80
70079;DHT22;57451;52.496;13.456;2023-06-24T10:42:31;23.20;53.90
70079;DHT22;57451;52.496;13.456;2023-06-24T10:45:19;23.20;53.50
70079;DHT22;57451;52.496;13.456;2023-06-24T10:47:49;23.30;52.50
70079;DHT22;57451;52.496;13.456;2023-06-24T10:50:20;23.40;52.20
70079;DHT22;57451;52.496;13.456;2023-06-24T10:52:49;23.40;52.00
70079;DHT22;57451;52.496;13.456;2023-06-24T10:55:22;23.50;52.30
70079;DHT22;57451;52.496;13.456;2023-06-24T10:57:51;23.50;52.30
70079;DHT22;57451;52.496;13.456;2023-06-24T11:00:21;23.60;52.60
70079;DHT22;57451;52.496;13.456;2023-06-24T11:02:49;23.70;51.80
70079;DHT22;57451;52.496;13.456;2023-06-24T11:05:16;23.70;52.70
70079;DHT22;57451;52.496;13.456;2023-06-24T11:07:44;23.80;52.20
70079;DHT22;57451;52.496;13.456;2023-06-24T11:10:14;23.90;52.30
70079;DHT22;57451;52.496;13.456;2023-06-24T11:12:42;24.00;52.30
70079;DHT22;57451;52.496;13.456;2023-06-24T11:15:11;24.00;52.90
70079;DHT22;57451;52.496;13.456;2023-06-24T11:17:41;24.10;52.80
70079;DHT22;57451;52.496;13.456;2023-06-24T11:20:10;24.10;51.30
70079;DHT22;57451;52.496;13.456;2023-06-24T11:22:39;24.10;49.60
70079;DHT22;57451;52.496;13.456;2023-06-24T11:25:14;24.20;51.40
70079;DHT22;57451;52.496;13.456;2023-06-24T11:27:42;24.20;51.10
70079;DHT22;57451;52.496;13.456;2023-06-24T11:30:11;24.20;52.00
70079;DHT22;57451;52.496;13.456;2023-06-24T11:32:41;24.30;51.40
70079;DHT22;57451;52.496;13.456;2023-06-24T11:35:10;24.40;52.10
70079;DHT22;57451;52.496;13.456;2023-06-24T11:37:41;24.40;50.70
70079;DHT22;57451;52.496;13.456;2023-06-24T11:40:11;24.40;51.60
70079;DHT22;57451;52.496;13.456;2023-06-24T11:42:41;24.50;51.60
70079;DHT22;57451;52.496;13.456;2023-06-24T11:45:10;24.60;51.20
70079;DHT22;57451;52.496;13.456;2023-06-24T11:47:43;24.70;49.50
70079;DHT22;57451;52.496;13.456;2023-06-24T11:50:11;24.70;49.70
70079;DHT22;57451;52.496;13.456;2023-06-24T11:52:39;24.70;50.20
70079;DHT22;57451;52.496;13.456;2023-06-24T11:55:17;24.80;50.60
70079;DHT22;57451;52.496;13.456;2023-06-24T11:57:51;24.80;50.60
70079;DHT22;57451;52.496;13.456;2023-06-24T12:00:21;24.90;50.90
70079;DHT22;57451;52.496;13.456;2023-06-24T12:02:56;25.00;50.40
70079;DHT22;57451;52.496;13.456;2023-06-24T12:05:26;25.10;49.90
70079;DHT22;57451;52.496;13.456;2023-06-24T12:07:57;25.10;48.60
70079;DHT22;57451;52.496;13.456;2023-06-24T12:10:26;25.10;49.60
70079;DHT22;57451;52.496;13.456;2023-06-24T12:12:54;25.20;50.30
70079;DHT22;57451;52.496;13.456;2023-06-24T12:15:21;25.30;48.70
70079;DHT22;57451;52.496;13.456;2023-06-24T12:17:49;25.40;48.30
70079;DHT22;57451;52.496;13.456;2023-06-24T12:20:18;25.40;48.10
70079;DHT22;57451;52.496;13.456;2023-06-24T12:22:46;25.50;48.60
70079;DHT22;57451;52.496;13.456;2023-06-24T12:25:16;25.50;47.80
70079;DHT22;57451;52.496;13.456;2023-06-24T12:27:47;25.60;47.20
70079;DHT22;57451;52.496;13.456;2023-06-24T12:30:14;25.60;48.70
70079;DHT22;57451;52.496;13.456;2023-06-24T12:32:44;25.70;47.70
70079;DHT22;57451;52.496;13.456;2023-06-24T12:35:12;25.80;47.90
70079;DHT22;57451;52.496;13.456;2023-06-24T12:37:41;25.80;47.20
70079;DHT22;57451;52.496;13.456;2023-06-24T12:40:09;25.80;47.40
70079;DHT22;57451;52.496;13.456;2023-06-24T12:42:37;25.90;47.80
70079;DHT22;57451;52.496;13.456;2023-06-24T12:45:06;26.00;47.00
70079;DHT22;57451;52.496;13.456;2023-06-24T12:47:34;26.10;48.00
70079;DHT22;57451;52.496;13.456;2023-06-24T12:50:01;26.10;47.20
70079;DHT22;57451;52.496;13.456;2023-06-24T12:52:36;26.10;48.00
70079;DHT22;57451;52.496;13.456;2023-06-24T12:55:07;26.20;45.70
70079;DHT22;57451;52.496;13.456;2023-06-24T12:57:35;26.30;47.20
70079;DHT22;57451;52.496;13.456;2023-06-24T13:00:04;26.30;47.50
70079;DHT22;57451;52.496;13.456;2023-06-24T13:02:35;26.40;47.10
70079;DHT22;57451;52.496;13.456;2023-06-24T13:05:11;26.40;46.50
70079;DHT22;57451;52.496;13.456;2023-06-24T13:07:38;26.50;46.10
70079;DHT22;57451;52.496;13.456;2023-06-24T13:10:08;26.50;45.20
70079;DHT22;57451;52.496;13.456;2023-06-24T13:12:36;26.50;46.00
70079;DHT22;57451;52.496;13.456;2023-06-24T13:15:05;26.60;46.40
70079;DHT22;57451;52.496;13.456;2023-06-24T13:17:33;26.70;46.10
70079;DHT22;57451;52.496;13.456;2023-06-24T13:20:01;26.70;46.10
70079;DHT22;57451;52.496;13.456;2023-06-24T13:22:31;26.70;46.10
70079;DHT22;57451;52.496;13.456;2023-06-24T13:24:58;26.70;43.90
70079;DHT22;57451;52.496;13.456;2023-06-24T13:27:27;26.70;45.50
70079;DHT22;57451;52.496;13.456;2023-06-24T13:29:55;26.70;46.40
70079;DHT22;57451;52.496;13.456;2023-06-24T13:32:24;26.80;46.50
70079;DHT22;57451;52.496;13.456;2023-06-24T13:34:52;26.90;46.40
70079;DHT22;57451;52.496;13.456;2023-06-24T13:37:19;27.00;46.20
70079;DHT22;57451;52.496;13.456;2023-06-24T13:39:47;27.00;45.30
70079;DHT22;57451;52.496;13.456;2023-06-24T13:42:14;27.10;45.30
70079;DHT22;57451;52.496;13.456;2023-06-24T13:44:43;27.10;45.60
70079;DHT22;57451;52.496;13.456;2023-06-24T13:47:11;27.20;46.00
70079;DHT22;57451;52.496;13.456;2023-06-24T13:49:40;27.20;45.80
70079;DHT22;57451;52.496;13.456;2023-06-24T13:52:07;27.30;44.70
70079;DHT22;57451;52.496;13.456;2023-06-24T13:54:35;27.20;44.60
70079;DHT22;57451;52.496;13.456;2023-06-24T13:57:03;27.20;44.20
70079;DHT22;57451;52.496;13.456;2023-06-24T13:59:30;27.30;44.90
70079;DHT22;57451;52.496;13.456;2023-06-24T14:01:59;27.30;43.50
70079;DHT22;57451;52.496;13.456;2023-06-24T14:04:27;27.40;43.70
70079;DHT22;57451;52.496;13.456;2023-06-24T14:06:54;27.30;43.40
70079;DHT22;57451;52.496;13.456;2023-06-24T14:09:22;27.30;44.70
70079;DHT22;57451;52.496;13.456;2023-06-24T14:11:50;27.40;45.30
70079;DHT22;57451;52.496;13.456;2023-06-24T14:14:18;27.40;44.80
70079;DHT22;57451;52.496;13.456;2023-06-24T14:16:46;27.50;45.10
70079;DHT22;57451;52.496;13.456;2023-06-24T14:19:15;27.60;43.80
70079;DHT22;57451;52.496;13.456;2023-06-24T14:21:43;27.50;43.70
70079;DHT22;57451;52.496;13.456;2023-06-24T14:24:11;27.60;44.60
70079;DHT22;57451;52.496;13.456;2023-06-24T14:26:43;27.60;43.70
70079;DHT22;57451;52.496;13.456;2023-06-24T14:29:11;27.70;43.00
70079;DHT22;57451;52.496;13.456;2023-06-24T14:31:39;27.60;44.40
70079;DHT22;57451;52.496;13.456;2023-06-24T14:34:06;27.70;43.50
70079;DHT22;57451;52.496;13.456;2023-06-24T14:36:35;27.60;43.80
70079;DHT22;57451;52.496;13.456;2023-06-24T14:39:06;27.70;45.40
70079;DHT22;57451;52.496;13.456;2023-06-24T14:41:33;27.70;43.90
70079;DHT22;57451;52.496;13.456;2023-06-24T14:44:02;27.80;44.80
70079;DHT22;57451;52.496;13.456;2023-06-24T14:46:29;27.80;43.90
70079;DHT22;57451;52.496;13.456;2023-06-24T14:48:59;27.80;41.80
70079;DHT22;57451;52.496;13.456;2023-06-24T14:51:27;27.70;43.50
70079;DHT22;57451;52.496;13.456;2023-06-24T14:53:56;27.70;43.70
70079;DHT22;57451;52.496;13.456;2023-06-24T14:56:24;27.70;44.20
70079;DHT22;57451;52.496;13.456;2023-06-24T14:58:51;27.70;44.70
70079;DHT22;57451;52.496;13.456;2023-06-24T15:01:19;27.80;44.60
70079;DHT22;57451;52.496;13.456;2023-06-24T15:03:46;27.80;43.70
70079;DHT22;57451;52.496;13.456;2023-06-24T15:06:16;27.90;42.90
70079;DHT22;57451;52.496;13.456;2023-06-24T15:08:45;27.80;43.00
70079;DHT22;57451;52.496;13.456;2023-06-24T15:11:15;27.80;43.10
70079;DHT22;57451;52.496;13.456;2023-06-24T15:13:43;27.80;43.00
70079;DHT22;57451;52.496;13.456;2023-06-24T15:16:10;27.80;43.90
70079;DHT22;57451;52.496;13.456;2023-06-24T15:18:46;27.80;44.50
70079;DHT22;57451;52.496;13.456;2023-06-24T15:21:14;27.90;43.90
70079;DHT22;57451;52.496;13.456;2023-06-24T15:24:02;27.90;44.00
70079;DHT22;57451;52.496;13.456;2023-06-24T15:26:56;27.90;43.90